sensor_id;sensor_type;location;lat;lon;timestamp;temperature;humidity
70475;DHT22;57944;48.722;9.316;2022-12-10T00:00:55;2.20;99.90
70475;DHT22;57944;48.722;9.316;2022-12-10T00:03:33;2.20;99.90
70475;DHT22;57944;48.722;9.316;2022-12-10T00:06:06;2.30;99.90
70475;DHT22;57944;48.722;9.316;2022-12-10T00:08:42;2.30;99.90
70475;DHT22;57944;48.722;9.316;2022-12-10T00:11:14;2.30;99.90
70475;DHT22;57944;48.722;9.316;2022-12-10T00:13:47;2.10;99.90
70475;DHT22;57944;48.722;9.316;2022-12-10T00:16:19;2.10;99.90
70475;DHT22;57944;48.722;9.316;2022-12-10T00:18:52;2.10;99.90
70475;DHT22;57944;48.722;9.316;2022-12-10T00:21:28;2.10;99.90
70475;DHT22;57944;48.722;9.316;2022-12-10T00:24:03;2.20;99.90
70475;DHT22;57944;48.722;9.316;2022-12-10T00:26:35;2.10;99.90
70475;DHT22;57944;48.722;9.316;2022-12-10T00:29:10;2.00;99.90
70475;DHT22;57944;48.722;9.316;2022-12-10T00:31:41;1.90;99.90
70475;DHT22;57944;48.722;9.316;2022-12-10T00:34:12;1.90;99.90
70475;DHT22;57944;48.722;9.316;2022-12-10T00:36:44;1.90;99.90
70475;DHT22;57944;48.722;9.316;2022-12-10T00:39:20;1.90;99.90
70475;DHT22;57944;48.722;9.316;2022-12-10T00:41:50;1.90;99.90
70475;DHT22;57944;48.722;9.316;2022-12-10T00:44:20;1.90;99.90
70475;DHT22;57944;48.722;9.316;2022-12-10T00:46:50;1.80;99.90
70475;DHT22;57944;48.722;9.316;2022-12-10T00:49:21;1.70;99.90
70475;DHT22;57944;48.722;9.316;2022-12-10T00:51:51;1.70;99.90
70475;DHT22;57944;48.722;9.316;2022-12-10T00:54:24;1.80;99.90
70475;DHT22;57944;48.722;9.316;2022-12-10T00:56:54;1.80;99.90
70475;DHT22;57944;48.722;9.316;2022-12-10T00:59:24;1.90;99.90
70475;DHT22;57944;48.722;9.316;2022-12-10T01:01:54;1.90;99.90
70475;DHT22;57944;48.722;9.316;2022-12-10T01:04:25;2.00;99.90
70475;DHT22;57944;48.722;9.316;2022-12-10T01:06:55;2.00;99.90
70475;DHT22;57944;48.722;9.316;2022-12-10T01:09:30;1.90;99.90
70475;DHT22;57944;48.722;9.316;2022-12-10T01:12:02;2.00;99.90
70475;DHT22;57944;48.722;9.316;2022-12-10T01:14:33;2.10;99.90
70475;DHT22;57944;48.722;9.316;2022-12-10T01:17:05;2.10;99.90
70475;DHT22;57944;48.722;9.316;2022-12-10T01:19:36;2.10;99.90
70475;DHT22;57944;48.722;9.316;2022-12-10T01:22:06;2.10;99.90
70475;DHT22;57944;48.722;9.316;2022-12-10T01:24:39;2.10;99.90
70475;DHT22;57944;48.722;9.316;2022-12-10T01:27:09;2.10;99.90
70475;DHT22;57944;48.722;9.316;2022-12-10T01:29:40;2.10;99.90
70475;DHT22;57944;48.722;9.316;2022-12-10T01:32:10;2.10;99.90
70475;DHT22;57944;48.722;9.316;2022-12-10T01:34:40;2.00;99.90
70475;DHT22;57944;48.722;9.316;2022-12-10T01:37:11;2.00;99.90
70475;DHT22;57944;48.722;9.316;2022-12-10T01:39:43;2.00;99.90
70475;DHT22;57944;48.722;9.316;2022-12-10T01:42:14;2.00;99.90
70475;DHT22;57944;48.722;9.316;2022-12-10T01:45:03;2.00;99.90
70475;DHT22;57944;48.722;9.316;2022-12-10T01:47:36;2.10;99.90
70475;DHT22;57944;48.722;9.316;2022-12-10T01:50:08;2.10;99.90
70475;DHT22;57944;48.722;9.316;2022-12-10T01:52:38;1.90;99.90
70475;DHT22;57944;48.722;9.316;2022-12-10T01:55:40;1.80;99.90
70475;DHT22;57944;48.722;9.316;2022-12-10T01:58:15;1.80;99.90
70475;DHT22;57944;48.722;9.316;2022-12-10T02:00:58;1.70;99.90
70475;DHT22;57944;48.722;9.316;2022-12-10T02:03:42;1.70;99.90
70475;DHT22;57944;48.722;9.316;2022-12-10T02:06:32;1.60;99.90
70475;DHT22;57944;48.722;9.316;2022-12-10T02:09:19;1.60;99.90
70475;DHT22;57944;48.722;9.316;2022-12-10T02:12:06;1.70;99.90
70475;DHT22;57944;48.722;9.316;2022-12-10T02:14:48;1.50;99.90
70475;DHT22;57944;48.722;9.316;2022-12-10T02:17:27;1.30;99.90
70475;DHT22;57944;48.722;9.316;2022-12-10T02:20:06;1.30;99.90
70475;DHT22;57944;48.722;9.316;2022-12-10T02:22:44;1.40;99.90
70475;DHT22;57944;48.722;9.316;2022-12-10T02:25:21;1.40;99.90
70475;DHT22;57944;48.722;9.316;2022-12-10T02:28:05;1.40;99.90
70475;DHT22;57944;48.722;9.316;2022-12-10T02:30:45;1.50;99.90
70475;DHT22;57944;48.722;9.316;2022-12-10T02:33:19;1.60;99.90
70475;DHT22;57944;48.722;9.316;2022-12-10T02:35:51;1.70;99.90
70475;DHT22;57944;48.722;9.316;2022-12-10T02:38:29;1.70;99.90
70475;DHT22;57944;48.722;9.316;2022-12-10T02:41:04;1.70;99.90
70475;DHT22;57944;48.722;9.316;2022-12-10T02:43:37;1.60;99.90
70475;DHT22;57944;48.722;9.316;2022-12-10T02:46:12;1.60;99.90
70475;DHT22;57944;48.722;9.316;2022-12-10T02:48:43;1.60;99.90
70475;DHT22;57944;48.722;9.316;2022-12-10T02:51:16;1.50;99.90
70475;DHT22;57944;48.722;9.316;2022-12-10T02:53:58;1.60;99.90
70475;DHT22;57944;48.722;9.316;2022-12-10T02:56:35;1.60;99.90
70475;DHT22;57944;48.722;9.316;2022-12-10T02:59:14;1.50;99.90
70475;DHT22;57944;48.722;9.316;2022-12-10T03:01:59;1.60;99.90
70475;DHT22;57944;48.722;9.316;2022-12-10T03:04:39;1.70;99.90
70475;DHT22;57944;48.722;9.316;2022-12-10T03:07:21;1.70;99.90
70475;DHT22;57944;48.722;9.316;2022-12-10T03:10:02;1.80;99.90
70475;DHT22;57944;48.722;9.316;2022-12-10T03:12:40;1.80;99.90
70475;DHT22;57944;48.722;9.316;2022-12-10T03:15:16;1.80;99.90
70475;DHT22;57944;48.722;9.316;2022-12-10T03:17:51;1.70;99.90
70475;DHT22;57944;48.722;9.316;2022-12-10T03:20:25;1.70;99.90
70475;DHT22;57944;48.722;9.316;2022-12-10T03:22:56;1.60;99.90
70475;DHT22;57944;48.722;9.316;2022-12-10T03:25:28;1.50;99.90
70475;DHT22;57944;48.722;9.316;2022-12-10T03:28:01;1.60;99.90
70475;DHT22;57944;48.722;9.316;2022-12-10T03:30:33;1.70;99.90
70475;DHT22;57944;48.722;9.316;2022-12-10T03:33:09;1.80;99.90
70475;DHT22;57944;48.722;9.316;2022-12-10T03:35:40;1.80;99.90
70475;DHT22;57944;48.722;9.316;2022-12-10T03:38:11;1.80;99.90
70475;DHT22;57944;48.722;9.316;2022-12-10T03:40:43;1.70;99.90
70475;DHT22;57944;48.722;9.316;2022-12-10T03:43:14;1.70;99.90
70475;DHT22;57944;48.722;9.316;2022-12-10T03:45:44;1.70;99.90
70475;DHT22;57944;48.722;9.316;2022-12-10T03:48:17;1.60;99.90
70475;DHT22;57944;48.722;9.316;2022-12-10T03:50:47;1.50;99.90
70475;DHT22;57944;48.722;9.316;2022-12-10T03:53:18;1.40;99.90
70475;DHT22;57944;48.722;9.316;2022-12-10T03:55:48;1.40;99.90
70475;DHT22;57944;48.722;9.316;2022-12-10T03:58:18;1.40;99.90
70475;DHT22;57944;48.722;9.316;2022-12-10T04:00:48;1.30;99.90
70475;DHT22;57944;48.722;9.316;2022-12-10T04:03:20;1.30;99.90
70475;DHT22;57944;48.722;9.316;2022-12-10T04:05:51;1.40;99.90
70475;DHT22;57944;48.722;9.316;2022-12-10T04:08:21;1.40;99.90
70475;DHT22;57944;48.722;9.316;2022-12-10T04:10:51;1.50;99.90
70475;DHT22;57944;48.722;9.316;2022-12-10T04:13:21;1.60;99.90
70475;DHT22;57944;48.722;9.316;2022-12-10T04:16:04;1.50;99.90
70475;DHT22;57944;48.722;9.316;2022-12-10T04:18:49;1.50;99.90
70475;DHT22;57944;48.722;9.316;2022-12-10T04:21:28;1.30;99.90
70475;DHT22;57944;48.722;9.316;2022-12-10T04:24:13;1.10;99.90
70475;DHT22;57944;48.722;9.316;2022-12-10T04:26:59;1.20;99.90
70475;DHT22;57944;48.722;9.316;2022-12-10T04:29:34;1.30;99.90
70475;DHT22;57944;48.722;9.316;2022-12-10T04:32:04;1.30;99.90
70475;DHT22;57944;48.722;9.316;2022-12-10T04:34:38;1.30;99.90
70475;DHT22;57944;48.722;9.316;2022-12-10T04:37:08;1.40;99.90
70475;DHT22;57944;48.722;9.316;2022-12-10T04:39:38;1.40;99.90
70475;DHT22;57944;48.722;9.316;2022-12-10T04:42:09;1.40;99.90
70475;DHT22;57944;48.722;9.316;2022-12-10T04:44:39;1.40;99.90
70475;DHT22;57944;48.722;9.316;2022-12-10T04:47:10;1.30;99.90
70475;DHT22;57944;48.722;9.316;2022-12-10T04:49:44;1.30;99.90
70475;DHT22;57944;48.722;9.316;2022-12-10T04:52:15;1.30;99.90
70475;DHT22;57944;48.722;9.316;2022-12-10T04:54:46;1.20;99.90
70475;DHT22;57944;48.722;9.316;2022-12-10T04:57:16;1.20;99.90
70475;DHT22;57944;48.722;9.316;2022-12-10T04:59:46;1.30;99.90
70475;DHT22;57944;48.722;9.316;2022-12-10T05:02:16;1.30;99.90
70475;DHT22;57944;48.722;9.316;2022-12-10T05:04:50;1.20;99.90
70475;DHT22;57944;48.722;9.316;2022-12-10T05:07:21;1.30;99.90
70475;DHT22;57944;48.722;9.316;2022-12-10T05:09:51;1.40;99.90
70475;DHT22;57944;48.722;9.316;2022-12-10T05:12:21;1.50;99.90
70475;DHT22;57944;48.722;9.316;2022-12-10T05:14:51;1.60;99.90
70475;DHT22;57944;48.722;9.316;2022-12-10T05:17:21;1.60;99.90
70475;DHT22;57944;48.722;9.316;2022-12-10T05:19:54;1.50;99.90
70475;DHT22;57944;48.722;9.316;2022-12-10T05:22:24;1.20;99.90
70475;DHT22;57944;48.722;9.316;2022-12-10T05:25:07;1.20;99.90
70475;DHT22;57944;48.722;9.316;2022-12-10T05:27:37;1.20;99.90
70475;DHT22;57944;48.722;9.316;2022-12-10T05:30:09;1.10;99.90
70475;DHT22;57944;48.722;9.316;2022-12-10T05:32:40;1.00;99.90
70475;DHT22;57944;48.722;9.316;2022-12-10T05:35:13;1.10;99.90
70475;DHT22;57944;48.722;9.316;2022-12-10T05:37:43;1.00;99.90
70475;DHT22;57944;48.722;9.316;2022-12-10T05:40:13;1.00;99.90
70475;DHT22;57944;48.722;9.316;2022-12-10T05:42:43;1.00;99.90
70475;DHT22;57944;48.722;9.316;2022-12-10T05:45:14;1.00;99.90
70475;DHT22;57944;48.722;9.316;2022-12-10T05:47:44;1.00;99.90
70475;DHT22;57944;48.722;9.316;2022-12-10T05:50:17;1.00;99.90
70475;DHT22;57944;48.722;9.316;2022-12-10T05:52:47;1.10;99.90
70475;DHT22;57944;48.722;9.316;2022-12-10T05:55:20;1.00;99.90
70475;DHT22;57944;48.722;9.316;2022-12-10T05:57:50;0.90;99.90
70475;DHT22;57944;48.722;9.316;2022-12-10T06:00:21;0.80;99.90
70475;DHT22;57944;48.722;9.316;2022-12-10T06:02:51;0.80;99.90
70475;DHT22;57944;48.722;9.316;2022-12-10T06:05:24;0.80;99.90
70475;DHT22;57944;48.722;9.316;2022-12-10T06:07:54;0.80;99.90
70475;DHT22;57944;48.722;9.316;2022-12-10T06:10:24;0.80;99.90
70475;DHT22;57944;48.722;9.316;2022-12-10T06:12:54;0.80;99.90
70475;DHT22;57944;48.722;9.316;2022-12-10T06:15:24;0.80;99.90
70475;DHT22;57944;48.722;9.316;2022-12-10T06:17:55;0.80;99.90
70475;DHT22;57944;48.722;9.316;2022-12-10T06:20:28;0.80;99.90
70475;DHT22;57944;48.722;9.316;2022-12-10T06:22:58;0.70;99.90
70475;DHT22;57944;48.722;9.316;2022-12-10T06:25:28;0.70;99.90
70475;DHT22;57944;48.722;9.316;2022-12-10T06:27:58;0.60;99.90
70475;DHT22;57944;48.722;9.316;2022-12-10T06:30:28;0.70;99.90
70475;DHT22;57944;48.722;9.316;2022-12-10T06:32:58;0.60;99.90
70475;DHT22;57944;48.722;9.316;2022-12-10T06:35:31;0.60;99.90
70475;DHT22;57944;48.722;9.316;2022-12-10T06:38:01;0.60;99.90
70475;DHT22;57944;48.722;9.316;2022-12-10T06:40:31;0.60;99.90
70475;DHT22;57944;48.722;9.316;2022-12-10T06:43:01;0.50;99.90
70475;DHT22;57944;48.722;9.316;2022-12-10T06:45:31;0.50;99.90
70475;DHT22;57944;48.722;9.316;2022-12-10T06:48:01;0.50;99.90
70475;DHT22;57944;48.722;9.316;2022-12-10T06:50:35;0.50;99.90
70475;DHT22;57944;48.722;9.316;2022-12-10T06:53:05;0.60;99.90
70475;DHT22;57944;48.722;9.316;2022-12-10T06:55:36;0.60;99.90
70475;DHT22;57944;48.722;9.316;2022-12-10T06:58:07;0.60;99.90
70475;DHT22;57944;48.722;9.316;2022-12-10T07:00:37;0.70;99.90
70475;DHT22;57944;48.722;9.316;2022-12-10T07:03:07;0.70;99.90
70475;DHT22;57944;48.722;9.316;2022-12-10T07:05:40;0.70;99.90
70475;DHT22;57944;48.722;9.316;2022-12-10T07:08:10;0.80;99.90
70475;DHT22;57944;48.722;9.316;2022-12-10T07:10:40;0.90;99.90
70475;DHT22;57944;48.722;9.316;2022-12-10T07:13:11;0.80;99.90
70475;DHT22;57944;48.722;9.316;2022-12-10T07:15:41;0.90;99.90
70475;DHT22;57944;48.722;9.316;2022-12-10T07:18:11;0.90;99.90
70475;DHT22;57944;48.722;9.316;2022-12-10T07:20:44;0.90;99.90
70475;DHT22;57944;48.722;9.316;2022-12-10T07:23:14;1.10;99.90
70475;DHT22;57944;48.722;9.316;2022-12-10T07:25:44;1.10;99.90
70475;DHT22;57944;48.722;9.316;2022-12-10T07:28:15;1.10;99.90
70475;DHT22;57944;48.722;9.316;2022-12-10T07:30:45;1.10;99.90
70475;DHT22;57944;48.722;9.316;2022-12-10T07:33:15;1.10;99.90
70475;DHT22;57944;48.722;9.316;2022-12-10T07:35:48;1.10;99.90
70475;DHT22;57944;48.722;9.316;2022-12-10T07:38:19;0.90;99.90
70475;DHT22;57944;48.722;9.316;2022-12-10T07:40:49;0.80;99.90
70475;DHT22;57944;48.722;9.316;2022-12-10T07:43:19;0.80;99.90
70475;DHT22;57944;48.722;9.316;2022-12-10T07:45:49;0.80;99.90
70475;DHT22;57944;48.722;9.316;2022-12-10T07:48:20;0.80;99.90
70475;DHT22;57944;48.722;9.316;2022-12-10T07:50:58;0.80;99.90
70475;DHT22;57944;48.722;9.316;2022-12-10T07:53:28;0.80;99.90
70475;DHT22;57944;48.722;9.316;2022-12-10T07:55:59;0.80;99.90
70475;DHT22;57944;48.722;9.316;2022-12-10T07:58:29;0.70;99.90
70475;DHT22;57944;48.722;9.316;2022-12-10T08:01:05;0.70;99.90
70475;DHT22;57944;48.722;9.316;2022-12-10T08:03:36;0.70;99.90
70475;DHT22;57944;48.722;9.316;2022-12-10T08:06:12;0.80;99.90
70475;DHT22;57944;48.722;9.316;2022-12-10T08:08:44;0.70;99.90
70475;DHT22;57944;48.722;9.316;2022-12-10T08:11:16;0.70;99.90
70475;DHT22;57944;48.722;9.316;2022-12-10T08:13:48;0.70;99.90
70475;DHT22;57944;48.722;9.316;2022-12-10T08:16:24;0.70;99.90
70475;DHT22;57944;48.722;9.316;2022-12-10T08:18:59;0.80;99.90
70475;DHT22;57944;48.722;9.316;2022-12-10T08:21:33;0.80;99.90
70475;DHT22;57944;48.722;9.316;2022-12-10T08:24:04;0.80;99.90
70475;DHT22;57944;48.722;9.316;2022-12-10T08:26:34;0.90;99.90
70475;DHT22;57944;48.722;9.316;2022-12-10T08:29:05;1.00;99.90
70475;DHT22;57944;48.722;9.316;2022-12-10T08:31:35;1.10;99.90
70475;DHT22;57944;48.722;9.316;2022-12-10T08:34:11;1.20;99.90
70475;DHT22;57944;48.722;9.316;2022-12-10T08:36:45;1.40;99.90
70475;DHT22;57944;48.722;9.316;2022-12-10T08:39:15;1.50;99.90
70475;DHT22;57944;48.722;9.316;2022-12-10T08:41:45;1.70;99.90
70475;DHT22;57944;48.722;9.316;2022-12-10T08:44:16;1.60;99.90
70475;DHT22;57944;48.722;9.316;2022-12-10T08:46:46;1.40;99.90
70475;DHT22;57944;48.722;9.316;2022-12-10T08:49:16;1.40;99.90
70475;DHT22;57944;48.722;9.316;2022-12-10T08:51:49;1.40;99.90
70475;DHT22;57944;48.722;9.316;2022-12-10T08:54:20;1.50;99.90
70475;DHT22;57944;48.722;9.316;2022-12-10T08:56:50;1.40;99.90
70475;DHT22;57944;48.722;9.316;2022-12-10T08:59:21;1.50;99.90
70475;DHT22;57944;48.722;9.316;2022-12-10T09:01:52;1.70;99.90
70475;DHT22;57944;48.722;9.316;2022-12-10T09:04:23;1.60;99.90
70475;DHT22;57944;48.722;9.316;2022-12-10T09:06:55;1.80;99.90
70475;DHT22;57944;48.722;9.316;2022-12-10T09:09:25;1.90;99.90
70475;DHT22;57944;48.722;9.316;2022-12-10T09:11:57;1.90;99.90
70475;DHT22;57944;48.722;9.316;2022-12-10T09:14:27;2.00;99.90
70475;DHT22;57944;48.722;9.316;2022-12-10T09:16:57;2.00;99.90
70475;DHT22;57944;48.722;9.316;2022-12-10T09:19:27;2.00;99.90
70475;DHT22;57944;48.722;9.316;2022-12-10T09:22:00;2.00;99.90
70475;DHT22;57944;48.722;9.316;2022-12-10T09:24:30;2.00;99.90
70475;DHT22;57944;48.722;9.316;2022-12-10T09:27:01;1.90;99.90
70475;DHT22;57944;48.722;9.316;2022-12-10T09:29:32;2.00;99.90
70475;DHT22;57944;48.722;9.316;2022-12-10T09:32:03;2.00;99.90
70475;DHT22;57944;48.722;9.316;2022-12-10T09:34:33;2.10;99.90
70475;DHT22;57944;48.722;9.316;2022-12-10T09:37:05;2.20;99.90
70475;DHT22;57944;48.722;9.316;2022-12-10T09:39:36;2.20;99.90
70475;DHT22;57944;48.722;9.316;2022-12-10T09:42:18;2.30;99.90
70475;DHT22;57944;48.722;9.316;2022-12-10T09:45:02;2.10;99.90
70475;DHT22;57944;48.722;9.316;2022-12-10T09:47:45;2.00;99.90
70475;DHT22;57944;48.722;9.316;2022-12-10T09:50:28;2.10;99.90
70475;DHT22;57944;48.722;9.316;2022-12-10T09:53:04;2.10;99.90
70475;DHT22;57944;48.722;9.316;2022-12-10T09:55:45;2.20;99.90
70475;DHT22;57944;48.722;9.316;2022-12-10T09:58:19;2.10;99.90
70475;DHT22;57944;48.722;9.316;2022-12-10T10:00:58;2.00;99.90
70475;DHT22;57944;48.722;9.316;2022-12-10T10:03:34;2.00;99.90
70475;DHT22;57944;48.722;9.316;2022-12-10T10:06:12;2.00;99.90
70475;DHT22;57944;48.722;9.316;2022-12-10T10:08:48;2.00;99.90
70475;DHT22;57944;48.722;9.316;2022-12-10T10:11:25;2.10;99.90
70475;DHT22;57944;48.722;9.316;2022-12-10T10:14:00;2.10;99.90
70475;DHT22;57944;48.722;9.316;2022-12-10T10:16:35;2.10;99.90
70475;DHT22;57944;48.722;9.316;2022-12-10T10:19:13;2.00;99.90
70475;DHT22;57944;48.722;9.316;2022-12-10T10:21:47;2.00;99.90
70475;DHT22;57944;48.722;9.316;2022-12-10T10:24:23;2.00;99.90
70475;DHT22;57944;48.722;9.316;2022-12-10T10:27:01;2.00;99.90
70475;DHT22;57944;48.722;9.316;2022-12-10T10:29:43;2.00;99.90
70475;DHT22;57944;48.722;9.316;2022-12-10T10:32:21;2.00;99.90
70475;DHT22;57944;48.722;9.316;2022-12-10T10:34:55;1.90;99.90
70475;DHT22;57944;48.722;9.316;2022-12-10T10:37:31;1.90;99.90
70475;DHT22;57944;48.722;9.316;2022-12-10T10:40:22;1.90;99.90
70475;DHT22;57944;48.722;9.316;2022-12-10T10:42:55;2.00;99.90
70475;DHT22;57944;48.722;9.316;2022-12-10T10:45:36;2.00;99.90
70475;DHT22;57944;48.722;9.316;2022-12-10T10:48:12;2.10;99.90
70475;DHT22;57944;48.722;9.316;2022-12-10T10:50:47;2.30;99.90
70475;DHT22;57944;48.722;9.316;2022-12-10T10:53:21;2.40;99.90
70475;DHT22;57944;48.722;9.316;2022-12-10T10:56:06;2.60;99.90
70475;DHT22;57944;48.722;9.316;2022-12-10T10:58:54;2.90;99.90
70475;DHT22;57944;48.722;9.316;2022-12-10T11:01:43;3.10;99.90
70475;DHT22;57944;48.722;9.316;2022-12-10T11:04:18;3.20;99.90
70475;DHT22;57944;48.722;9.316;2022-12-10T11:06:55;3.20;99.90
70475;DHT22;57944;48.722;9.316;2022-12-10T11:09:32;3.40;99.90
70475;DHT22;57944;48.722;9.316;2022-12-10T11:12:26;3.30;99.90
70475;DHT22;57944;48.722;9.316;2022-12-10T11:15:01;3.10;99.90
70475;DHT22;57944;48.722;9.316;2022-12-10T11:17:31;3.00;99.90
70475;DHT22;57944;48.722;9.316;2022-12-10T11:20:17;3.20;99.90
70475;DHT22;57944;48.722;9.316;2022-12-10T11:22:49;3.20;99.90
70475;DHT22;57944;48.722;9.316;2022-12-10T11:25:41;3.10;99.90
70475;DHT22;57944;48.722;9.316;2022-12-10T11:28:36;3.00;99.90
70475;DHT22;57944;48.722;9.316;2022-12-10T11:31:38;3.00;99.90
70475;DHT22;57944;48.722;9.316;2022-12-10T11:34:20;3.10;99.90
70475;DHT22;57944;48.722;9.316;2022-12-10T11:37:05;2.90;99.90
70475;DHT22;57944;48.722;9.316;2022-12-10T11:40:00;2.80;99.90
70475;DHT22;57944;48.722;9.316;2022-12-10T11:42:50;2.70;99.90
70475;DHT22;57944;48.722;9.316;2022-12-10T11:45:44;2.70;99.90
70475;DHT22;57944;48.722;9.316;2022-12-10T11:48:32;2.70;99.90
70475;DHT22;57944;48.722;9.316;2022-12-10T11:51:18;2.80;99.90
70475;DHT22;57944;48.722;9.316;2022-12-10T11:54:10;2.70;99.90
70475;DHT22;57944;48.722;9.316;2022-12-10T11:57:00;2.80;99.90
70475;DHT22;57944;48.722;9.316;2022-12-10T11:59:46;2.90;99.90
70475;DHT22;57944;48.722;9.316;2022-12-10T12:03:03;2.80;99.90
70475;DHT22;57944;48.722;9.316;2022-12-10T12:06:04;2.80;99.90
70475;DHT22;57944;48.722;9.316;2022-12-10T12:08:53;2.90;99.90
70475;DHT22;57944;48.722;9.316;2022-12-10T12:11:50;2.80;99.90
70475;DHT22;57944;48.722;9.316;2022-12-10T12:14:31;2.70;99.90
70475;DHT22;57944;48.722;9.316;2022-12-10T12:17:11;2.80;99.90
70475;DHT22;57944;48.722;9.316;2022-12-10T12:19:54;2.80;99.90
70475;DHT22;57944;48.722;9.316;2022-12-10T12:22:31;2.80;99.90
70475;DHT22;57944;48.722;9.316;2022-12-10T12:25:08;3.00;99.90
70475;DHT22;57944;48.722;9.316;2022-12-10T12:27:51;3.10;99.90
70475;DHT22;57944;48.722;9.316;2022-12-10T12:30:25;3.20;99.90
70475;DHT22;57944;48.722;9.316;2022-12-10T12:32:59;3.40;99.90
70475;DHT22;57944;48.722;9.316;2022-12-10T12:35:40;3.30;99.90
70475;DHT22;57944;48.722;9.316;2022-12-10T12:38:26;3.20;99.90
70475;DHT22;57944;48.722;9.316;2022-12-10T12:41:04;2.90;99.90
70475;DHT22;57944;48.722;9.316;2022-12-10T12:43:40;2.90;99.90
70475;DHT22;57944;48.722;9.316;2022-12-10T12:46:21;2.90;99.90
70475;DHT22;57944;48.722;9.316;2022-12-10T12:49:02;2.80;99.90
70475;DHT22;57944;48.722;9.316;2022-12-10T12:51:47;2.90;99.90
70475;DHT22;57944;48.722;9.316;2022-12-10T12:54:21;2.90;99.90
70475;DHT22;57944;48.722;9.316;2022-12-10T12:56:59;2.90;99.90
70475;DHT22;57944;48.722;9.316;2022-12-10T12:59:47;2.80;99.90
70475;DHT22;57944;48.722;9.316;2022-12-10T13:02:42;3.00;99.90
70475;DHT22;57944;48.722;9.316;2022-12-10T13:05:24;3.10;99.90
70475;DHT22;57944;48.722;9.316;2022-12-10T13:08:22;3.00;99.90
70475;DHT22;57944;48.722;9.316;2022-12-10T13:10:58;3.00;99.90
70475;DHT22;57944;48.722;9.316;2022-12-10T13:13:33;3.20;99.90
70475;DHT22;57944;48.722;9.316;2022-12-10T13:19:27;3.00;99.90
70475;DHT22;57944;48.722;9.316;2022-12-10T13:22:07;2.90;99.90
70475;DHT22;57944;48.722;9.316;2022-12-10T13:27:56;2.80;99.90
70475;DHT22;57944;48.722;9.316;2022-12-10T13:30:33;2.90;99.90
70475;DHT22;57944;48.722;9.316;2022-12-10T13:33:13;2.90;99.90
70475;DHT22;57944;48.722;9.316;2022-12-10T13:35:55;2.80;99.90
70475;DHT22;57944;48.722;9.316;2022-12-10T13:38:39;2.90;99.90
70475;DHT22;57944;48.722;9.316;2022-12-10T13:41:13;2.80;99.90
70475;DHT22;57944;48.722;9.316;2022-12-10T13:43:58;2.60;99.90
70475;DHT22;57944;48.722;9.316;2022-12-10T13:46:54;2.50;99.90
70475;DHT22;57944;48.722;9.316;2022-12-10T13:49:30;2.40;99.90
70475;DHT22;57944;48.722;9.316;2022-12-10T13:52:21;2.40;99.90
70475;DHT22;57944;48.722;9.316;2022-12-10T13:55:20;2.30;99.90
70475;DHT22;57944;48.722;9.316;2022-12-10T13:58:35;2.20;99.90
70475;DHT22;57944;48.722;9.316;2022-12-10T14:01:29;2.00;99.90
70475;DHT22;57944;48.722;9.316;2022-12-10T14:07:16;2.00;99.90
70475;DHT22;57944;48.722;9.316;2022-12-10T14:09:50;2.00;99.90
70475;DHT22;57944;48.722;9.316;2022-12-10T14:12:25;2.00;99.90
70475;DHT22;57944;48.722;9.316;2022-12-10T14:15:04;2.10;99.90
70475;DHT22;57944;48.722;9.316;2022-12-10T14:17:39;2.00;99.90
70475;DHT22;57944;48.722;9.316;2022-12-10T14:20:16;2.00;99.90
70475;DHT22;57944;48.722;9.316;2022-12-10T14:22:50;1.90;99.90
70475;DHT22;57944;48.722;9.316;2022-12-10T14:25:44;1.90;99.90
70475;DHT22;57944;48.722;9.316;2022-12-10T14:28:17;1.90;99.90
70475;DHT22;57944;48.722;9.316;2022-12-10T14:30:51;1.90;99.90
70475;DHT22;57944;48.722;9.316;2022-12-10T14:33:24;1.70;99.90
70475;DHT22;57944;48.722;9.316;2022-12-10T14:35:55;1.70;99.90
70475;DHT22;57944;48.722;9.316;2022-12-10T14:38:30;1.60;99.90
70475;DHT22;57944;48.722;9.316;2022-12-10T14:41:03;1.50;99.90
70475;DHT22;57944;48.722;9.316;2022-12-10T14:43:36;1.40;99.90
70475;DHT22;57944;48.722;9.316;2022-12-10T14:46:16;1.30;99.90
70475;DHT22;57944;48.722;9.316;2022-12-10T14:48:50;1.30;99.90
70475;DHT22;57944;48.722;9.316;2022-12-10T14:51:23;1.20;99.90
70475;DHT22;57944;48.722;9.316;2022-12-10T14:53:55;1.30;99.90
70475;DHT22;57944;48.722;9.316;2022-12-10T14:56:28;1.20;99.90
70475;DHT22;57944;48.722;9.316;2022-12-10T14:59:04;1.20;99.90
70475;DHT22;57944;48.722;9.316;2022-12-10T15:01:49;1.10;99.90
70475;DHT22;57944;48.722;9.316;2022-12-10T15:04:23;1.10;99.90
70475;DHT22;57944;48.722;9.316;2022-12-10T15:07:02;1.10;99.90
70475;DHT22;57944;48.722;9.316;2022-12-10T15:09:32;1.00;99.90
70475;DHT22;57944;48.722;9.316;2022-12-10T15:12:02;0.90;99.90
70475;DHT22;57944;48.722;9.316;2022-12-10T15:14:33;0.80;99.90
70475;DHT22;57944;48.722;9.316;2022-12-10T15:20:21;0.60;99.90
70475;DHT22;57944;48.722;9.316;2022-12-10T15:22:54;0.50;99.90
70475;DHT22;57944;48.722;9.316;2022-12-10T15:25:42;0.50;99.90
70475;DHT22;57944;48.722;9.316;2022-12-10T15:28:23;0.50;99.90
70475;DHT22;57944;48.722;9.316;2022-12-10T15:30:57;0.60;99.90
70475;DHT22;57944;48.722;9.316;2022-12-10T15:33:37;0.60;99.90
70475;DHT22;57944;48.722;9.316;2022-12-10T15:36:18;0.70;99.90
70475;DHT22;57944;48.722;9.316;2022-12-10T15:38:52;0.80;99.90
70475;DHT22;57944;48.722;9.316;2022-12-10T15:41:39;0.70;99.90
70475;DHT22;57944;48.722;9.316;2022-12-10T15:44:24;0.70;99.90
70475;DHT22;57944;48.722;9.316;2022-12-10T15:47:03;0.60;99.90
70475;DHT22;57944;48.722;9.316;2022-12-10T15:49:52;0.60;99.90
70475;DHT22;57944;48.722;9.316;2022-12-10T15:52:26;0.60;99.90
70475;DHT22;57944;48.722;9.316;2022-12-10T15:54:58;0.60;99.90
70475;DHT22;57944;48.722;9.316;2022-12-10T15:57:29;0.50;99.90
70475;DHT22;57944;48.722;9.316;2022-12-10T16:00:04;0.60;99.90
70475;DHT22;57944;48.722;9.316;2022-12-10T16:02:45;0.40;99.90
70475;DHT22;57944;48.722;9.316;2022-12-10T16:05:22;0.50;99.90
70475;DHT22;57944;48.722;9.316;2022-12-10T16:07:58;0.40;99.90
70475;DHT22;57944;48.722;9.316;2022-12-10T16:10:29;0.30;99.90
70475;DHT22;57944;48.722;9.316;2022-12-10T16:13:01;0.30;99.90
70475;DHT22;57944;48.722;9.316;2022-12-10T16:15:35;0.20;99.90
70475;DHT22;57944;48.722;9.316;2022-12-10T16:18:12;0.20;99.90
70475;DHT22;57944;48.722;9.316;2022-12-10T16:20:45;0.20;99.90
70475;DHT22;57944;48.722;9.316;2022-12-10T16:23:15;0.20;99.90
70475;DHT22;57944;48.722;9.316;2022-12-10T16:25:46;0.10;99.90
70475;DHT22;57944;48.722;9.316;2022-12-10T16:28:18;0.20;99.90
70475;DHT22;57944;48.722;9.316;2022-12-10T16:30:50;0.20;99.90
70475;DHT22;57944;48.722;9.316;2022-12-10T16:33:24;0.20;99.90
70475;DHT22;57944;48.722;9.316;2022-12-10T16:35:57;0.20;99.90
70475;DHT22;57944;48.722;9.316;2022-12-10T16:38:28;0.30;99.90
70475;DHT22;57944;48.722;9.316;2022-12-10T16:40:59;0.30;99.90
70475;DHT22;57944;48.722;9.316;2022-12-10T16:43:31;0.30;99.90
70475;DHT22;57944;48.722;9.316;2022-12-10T16:46:01;0.40;99.90
70475;DHT22;57944;48.722;9.316;2022-12-10T16:48:31;0.30;99.90
70475;DHT22;57944;48.722;9.316;2022-12-10T16:51:05;0.30;99.90